Northwoods, Illinois
Current Conditions -  °F | °C
As of 9:52 PM on Friday 24 Oct 2014 (Local Time) from KDPA Reporting Station
Overcast Overcast  
Wind Chill: 59°   Ceiling: 3900
Heat Index: 59°   Visibility: 10mi
Dew Point: 49°   Wind: 6mph
Humidity: 69%   Direction: 230°SW
Pressure: 29.94"   Gusts: NA
Location:  41.9°N, 88.2142°W
Report Text: KDPA 250252Z 23005KT 10SM OVC039 15/09 A2994 RMK AO2 RAB0158E13B43E46 SLP139 P0000 60000 T01500094 55001
Loading
Personal Weather Stations






























Interactive Weather Map
Tropical Storm Tracking
New forecast layout! Learn more

10-Day Weather Forecast

Advertisements
Track Severe Weather on mobile